Marple Township, Pennsylvania
Current Conditions -  °F | °C
As of 2:54 AM on Friday 21 Nov 2014 (Local Time) from KPHL Reporting Station
Clear Clear  
Wind Chill: 21°   Ceiling: Unl
Heat Index: 31°   Visibility: 10mi
Dew Point:   Wind: 14mph
Humidity: 37%   Direction: 280°W
Pressure: 30.16"   Gusts: NA
Location:  39.9737°N, 75.3608°W
Report Text: KPHL 210754Z 28012KT 10SM CLR M01/M14 A3016 RMK AO2 SLP213 T10061139
Loading
Personal Weather Stations






























Interactive Weather Map New forecast layout! Learn more

10-Day Weather Forecast

Advertisements
Track Severe Weather on mobile